createdAt,value
2023-01-13T00:00:47.891Z,100764.16
2023-01-13T00:03:14.867Z,100759.66
2023-01-13T00:05:41.645Z,100768.06
2023-01-13T00:08:08.565Z,100766.91
2023-01-13T00:10:35.843Z,100766.22
2023-01-13T00:13:03.908Z,100765.87
2023-01-13T00:15:30.733Z,100765.03
2023-01-13T00:17:57.505Z,100769.37
2023-01-13T00:20:24.328Z,100765.03
2023-01-13T00:22:51.105Z,100763.22
2023-01-13T00:25:17.933Z,100754.56
2023-01-13T00:27:44.772Z,100758.72
2023-01-13T00:30:12.838Z,100751.28
2023-01-13T00:32:39.626Z,100750.44
2023-01-13T00:35:06.696Z,100752.88
2023-01-13T00:37:35.905Z,100749.88
2023-01-13T00:40:02.727Z,100752.53
2023-01-13T00:42:48.338Z,100752.53
2023-01-13T00:45:16.221Z,100740.81
2023-01-13T00:47:43.181Z,100741.16
2023-01-13T00:50:10.477Z,100740.22
2023-01-13T00:52:37.257Z,100734.88
2023-01-13T00:55:04.260Z,100735.91
2023-01-13T00:57:31.045Z,100737.09
2023-01-13T00:59:57.837Z,100740.09
2023-01-13T01:02:24.699Z,100743.25
2023-01-13T01:04:51.662Z,100741.75
2023-01-13T01:07:18.443Z,100738.94
2023-01-13T01:09:45.243Z,100744.34
2023-01-13T01:12:12.057Z,100733.34
2023-01-13T01:14:38.904Z,100741.06
2023-01-13T01:17:05.957Z,100732.50
2023-01-13T01:19:32.945Z,100728.28
2023-01-13T01:21:59.703Z,100721.22
2023-01-13T01:24:27.103Z,100725.97
2023-01-13T01:26:53.880Z,100718.47
2023-01-13T01:29:21.420Z,100719.34
2023-01-13T01:31:48.246Z,100714.25
2023-01-13T01:34:15.261Z,100714.81
2023-01-13T01:36:42.094Z,100715.16
2023-01-13T01:39:08.866Z,100709.13
2023-01-13T01:41:36.665Z,100714.06
2023-01-13T01:44:10.757Z,100707.91
2023-01-13T01:46:38.845Z,100711.59
2023-01-13T01:49:24.105Z,100710.19
2023-01-13T01:52:07.059Z,100711.66
2023-01-13T01:54:46.429Z,100703.16
2023-01-13T01:57:15.546Z,100707.75
2023-01-13T01:59:42.939Z,100700.44
2023-01-13T02:02:10.191Z,100697.31
2023-01-13T02:04:40.351Z,100698.31
2023-01-13T02:07:07.533Z,100689.91
2023-01-13T02:09:35.653Z,100695.06
2023-01-13T02:24:41.813Z,100683.75
2023-01-13T02:27:14.132Z,100687.63
2023-01-13T02:30:04.772Z,100677.50
2023-01-13T02:32:40.161Z,100669.81
2023-01-13T02:35:28.090Z,100670.00
2023-01-13T02:37:57.706Z,100668.16
2023-01-13T02:40:34.318Z,100662.97
2023-01-13T02:43:27.879Z,100653.56
2023-01-13T02:46:13.826Z,100654.59
2023-01-13T02:48:45.497Z,100650.16
2023-01-13T02:51:16.602Z,100649.44
2023-01-13T02:53:51.449Z,100642.34
2023-01-13T02:56:21.844Z,100647.50
2023-01-13T02:59:03.572Z,100645.56
2023-01-13T03:01:33.244Z,100653.31
2023-01-13T03:04:15.408Z,100650.00
2023-01-13T03:07:00.558Z,100651.47
2023-01-13T03:09:44.626Z,100653.06
2023-01-13T03:12:21.735Z,100654.75
2023-01-13T03:14:57.002Z,100651.88
2023-01-13T03:17:32.715Z,100644.03
2023-01-13T03:20:07.703Z,100637.41
2023-01-13T03:22:45.439Z,100631.06
2023-01-13T03:25:16.897Z,100630.91
2023-01-13T03:27:51.030Z,100630.37
2023-01-13T03:30:23.416Z,100631.09
2023-01-13T03:32:56.568Z,100628.06
2023-01-13T03:35:31.212Z,100627.84
2023-01-13T03:38:11.382Z,100622.56
2023-01-13T03:40:43.525Z,100623.47
2023-01-13T03:43:33.151Z,100621.22
2023-01-13T03:46:05.202Z,100616.63
2023-01-13T03:48:35.374Z,100621.62
2023-01-13T03:51:08.347Z,100621.53
2023-01-13T03:53:41.105Z,100617.66
2023-01-13T03:56:19.137Z,100617.59
2023-01-13T03:58:50.462Z,100611.13
2023-01-13T04:01:19.599Z,100615.53
2023-01-13T04:03:52.490Z,100621.72
2023-01-13T04:06:32.154Z,100616.91
2023-01-13T04:09:08.092Z,100619.19
2023-01-13T04:11:39.209Z,100614.06
2023-01-13T04:14:08.967Z,100619.22
2023-01-13T04:16:37.800Z,100621.38
2023-01-13T04:19:06.921Z,100616.91
2023-01-13T04:21:34.929Z,100622.34
2023-01-13T04:24:04.455Z,100634.50
2023-01-13T04:26:32.287Z,100632.53
2023-01-13T04:29:02.283Z,100631.31
2023-01-13T04:31:29.707Z,100620.63
2023-01-13T04:33:57.552Z,100628.91
2023-01-13T04:36:28.059Z,100630.28
2023-01-13T04:38:57.042Z,100639.63
2023-01-13T04:41:26.359Z,100630.16
2023-01-13T04:43:55.257Z,100635.44
2023-01-13T04:46:24.125Z,100636.09
2023-01-13T04:48:52.595Z,100631.19
2023-01-13T04:51:21.142Z,100628.72
2023-01-13T04:53:48.344Z,100621.28
2023-01-13T04:56:15.456Z,100634.41
2023-01-13T04:58:43.956Z,100628.09
2023-01-13T05:01:14.440Z,100628.38
2023-01-13T05:03:43.134Z,100635.38
2023-01-13T05:06:10.589Z,100644.03
2023-01-13T05:08:48.515Z,100633.50
2023-01-13T05:11:35.530Z,100632.31
2023-01-13T05:14:38.754Z,100632.53
2023-01-13T05:17:09.475Z,100631.97
2023-01-13T05:19:50.150Z,100636.41
2023-01-13T05:22:38.526Z,100630.59
2023-01-13T05:25:23.239Z,100628.22
2023-01-13T05:27:53.410Z,100627.59
2023-01-13T05:30:25.874Z,100627.25
2023-01-13T05:33:13.718Z,100626.75
2023-01-13T05:35:43.046Z,100634.75
2023-01-13T05:38:11.245Z,100637.41
2023-01-13T05:40:59.793Z,100634.50
2023-01-13T05:43:28.609Z,100628.84
2023-01-13T05:46:12.315Z,100636.16
2023-01-13T05:48:40.390Z,100629.78
2023-01-13T05:51:10.321Z,100638.97
2023-01-13T05:53:38.023Z,100640.94
2023-01-13T05:56:07.901Z,100639.19
2023-01-13T05:58:36.118Z,100640.50
2023-01-13T06:01:07.365Z,100644.88
2023-01-13T06:03:34.484Z,100653.00
2023-01-13T06:06:04.549Z,100651.56
2023-01-13T06:08:32.226Z,100639.25
2023-01-13T06:11:00.859Z,100636.19
2023-01-13T06:13:29.531Z,100635.75
2023-01-13T06:16:01.196Z,100638.69
2023-01-13T06:18:30.097Z,100637.03
2023-01-13T06:21:01.983Z,100628.97
2023-01-13T06:23:29.987Z,100633.75
2023-01-13T06:26:10.402Z,100638.44
2023-01-13T06:28:37.517Z,100638.44
2023-01-13T06:31:06.850Z,100630.03
2023-01-13T06:33:36.333Z,100632.94
2023-01-13T06:36:07.588Z,100634.22
2023-01-13T06:38:37.020Z,100629.44
2023-01-13T06:41:05.273Z,100624.16
2023-01-13T06:43:36.044Z,100624.19
2023-01-13T06:46:03.850Z,100628.88
2023-01-13T06:48:40.002Z,100624.88
2023-01-13T06:51:07.395Z,100625.94
2023-01-13T06:53:34.472Z,100625.47
2023-01-13T06:56:01.691Z,100613.34
2023-01-13T06:58:29.415Z,100614.41
2023-01-13T07:01:01.694Z,100611.88
2023-01-13T07:03:29.598Z,100619.38
2023-01-13T07:06:17.049Z,100621.28
2023-01-13T07:08:44.338Z,100627.47
2023-01-13T07:11:12.032Z,100631.75
2023-01-13T07:13:58.960Z,100640.91
2023-01-13T07:16:46.713Z,100639.03
2023-01-13T07:19:33.758Z,100640.84
2023-01-13T07:22:21.089Z,100622.75
2023-01-13T07:25:08.704Z,100624.13
2023-01-13T07:27:49.823Z,100631.56
2023-01-13T07:30:21.965Z,100626.44
2023-01-13T07:32:50.387Z,100635.12
2023-01-13T07:35:23.621Z,100631.81
2023-01-13T07:37:50.728Z,100625.34
2023-01-13T07:40:19.868Z,100620.34
2023-01-13T07:43:07.548Z,100611.38
2023-01-13T07:45:45.865Z,100607.72
2023-01-13T07:48:18.328Z,100592.34
2023-01-13T07:50:51.189Z,100597.94
2023-01-13T07:53:22.113Z,100582.34
2023-01-13T07:55:49.366Z,100592.53
2023-01-13T07:58:16.604Z,100587.69
2023-01-13T08:00:43.697Z,100593.03
2023-01-13T08:03:10.849Z,100591.12
2023-01-13T08:05:38.457Z,100598.00
2023-01-13T08:08:06.121Z,100614.22
2023-01-13T08:10:34.014Z,100622.34
2023-01-13T08:13:22.447Z,100638.16
2023-01-13T08:15:51.786Z,100645.03
2023-01-13T08:18:21.924Z,100652.31
2023-01-13T08:21:14.722Z,100640.28
2023-01-13T08:23:44.882Z,100647.84
2023-01-13T08:26:18.818Z,100646.47
2023-01-13T08:28:51.204Z,100662.66
2023-01-13T08:31:20.389Z,100664.37
2023-01-13T08:33:48.080Z,100674.81
2023-01-13T08:36:15.609Z,100667.81
2023-01-13T08:38:42.649Z,100659.75
2023-01-13T08:41:10.620Z,100672.84
2023-01-13T08:43:37.610Z,100675.97
2023-01-13T08:46:05.716Z,100684.59
2023-01-13T08:48:34.420Z,100670.03
2023-01-13T08:51:08.131Z,100670.06
2023-01-13T08:53:35.397Z,100668.56
2023-01-13T08:56:16.996Z,100669.62
2023-01-13T08:58:47.392Z,100655.69
2023-01-13T09:01:34.872Z,100662.91
2023-01-13T09:04:23.599Z,100667.50
2023-01-13T09:06:59.875Z,100667.03
2023-01-13T09:09:31.864Z,100658.88
2023-01-13T09:12:18.925Z,100657.81
2023-01-13T09:14:49.568Z,100658.44
2023-01-13T09:17:28.248Z,100671.06
2023-01-13T09:19:56.015Z,100670.81
2023-01-13T09:22:29.591Z,100672.06
2023-01-13T09:24:58.681Z,100667.63
2023-01-13T09:27:26.641Z,100669.38
2023-01-13T09:29:53.761Z,100668.75
2023-01-13T09:32:21.058Z,100665.50
2023-01-13T09:35:10.924Z,100649.84
2023-01-13T09:37:50.154Z,100649.16
2023-01-13T09:40:44.565Z,100650.41
2023-01-13T09:43:48.215Z,100659.22
2023-01-13T09:46:40.291Z,100649.69
2023-01-13T09:49:10.313Z,100654.88
2023-01-13T09:51:46.374Z,100654.19
2023-01-13T09:54:21.715Z,100651.41
2023-01-13T09:56:51.931Z,100644.63
2023-01-13T09:59:21.290Z,100648.62
2023-01-13T10:01:49.847Z,100633.28
2023-01-13T10:04:29.416Z,100621.81
2023-01-13T10:07:16.677Z,100637.97
2023-01-13T10:10:04.614Z,100616.00
2023-01-13T10:13:10.693Z,100618.56
2023-01-13T10:15:38.200Z,100609.47
2023-01-13T10:18:12.637Z,100620.09
2023-01-13T10:21:12.191Z,100631.28
2023-01-13T10:24:02.000Z,100612.47
2023-01-13T10:26:41.277Z,100615.03
2023-01-13T10:29:25.419Z,100613.09
2023-01-13T10:31:58.531Z,100609.78
2023-01-13T10:34:27.965Z,100594.84
2023-01-13T10:37:03.418Z,100593.19
2023-01-13T10:39:54.918Z,100595.50
2023-01-13T10:42:24.210Z,100589.03
2023-01-13T10:44:59.039Z,100584.72
2023-01-13T10:47:26.952Z,100582.69
2023-01-13T10:50:19.624Z,100580.50
2023-01-13T10:53:00.115Z,100581.72
2023-01-13T10:55:29.321Z,100581.03
2023-01-13T10:57:56.526Z,100576.75
2023-01-13T11:00:27.780Z,100567.16
2023-01-13T11:03:10.614Z,100557.66
2023-01-13T11:05:40.152Z,100552.53
2023-01-13T11:08:20.958Z,100542.75
2023-01-13T11:10:54.648Z,100540.03
2023-01-13T11:13:24.668Z,100547.81
2023-01-13T11:16:10.319Z,100543.31
2023-01-13T11:18:52.097Z,100537.56
2023-01-13T11:21:27.743Z,100536.66
2023-01-13T11:24:04.340Z,100522.00
2023-01-13T11:26:47.076Z,100522.78
2023-01-13T11:29:28.740Z,100523.53
2023-01-13T11:32:06.142Z,100520.12
2023-01-13T11:34:37.386Z,100523.72
2023-01-13T11:37:19.634Z,100515.13
2023-01-13T11:39:54.403Z,100515.78
2023-01-13T11:42:26.745Z,100499.38
2023-01-13T11:45:05.721Z,100493.25
2023-01-13T11:47:33.825Z,100483.78
2023-01-13T11:50:01.989Z,100475.84
2023-01-13T11:52:32.700Z,100468.78
2023-01-13T11:54:59.984Z,100474.94
2023-01-13T11:57:29.958Z,100465.16
2023-01-13T11:59:57.392Z,100462.62
2023-01-13T12:02:43.127Z,100459.06
2023-01-13T12:05:23.830Z,100460.16
2023-01-13T12:07:54.210Z,100462.62
2023-01-13T12:10:26.582Z,100450.69
2023-01-13T12:13:20.187Z,100454.94
2023-01-13T12:15:57.072Z,100456.91
2023-01-13T12:18:36.104Z,100461.25
2023-01-13T12:21:13.735Z,100463.84
2023-01-13T12:23:51.534Z,100477.81
2023-01-13T12:26:22.941Z,100474.41
2023-01-13T12:28:59.392Z,100475.28
2023-01-13T12:31:27.688Z,100465.56
2023-01-13T12:34:07.952Z,100462.84
2023-01-13T12:36:47.256Z,100466.16
2023-01-13T12:39:35.608Z,100450.25
2023-01-13T12:42:45.596Z,100452.97
2023-01-13T12:45:12.728Z,100440.06
2023-01-13T12:47:41.777Z,100448.47
2023-01-13T12:50:45.214Z,100452.41
2023-01-13T12:53:31.391Z,100452.12
2023-01-13T12:56:36.222Z,100455.91
2023-01-13T12:59:21.980Z,100454.31
2023-01-13T13:02:08.958Z,100447.31
2023-01-13T13:04:52.349Z,100443.81
2023-01-13T13:07:27.695Z,100442.94
2023-01-13T13:10:03.214Z,100437.69
2023-01-13T13:12:49.452Z,100447.31
2023-01-13T13:15:21.469Z,100442.06
2023-01-13T13:18:03.049Z,100436.81
2023-01-13T13:20:53.521Z,100433.31
2023-01-13T13:23:39.945Z,100433.34
2023-01-13T13:26:31.417Z,100437.69
2023-01-13T13:28:58.943Z,100430.69
2023-01-13T13:31:35.931Z,100436.78
2023-01-13T13:34:09.573Z,100444.69
2023-01-13T13:36:47.981Z,100442.06
2023-01-13T13:39:50.381Z,100447.19
2023-01-13T13:42:47.256Z,100434.19
2023-01-13T13:45:52.113Z,100441.13
2023-01-13T13:48:31.396Z,100435.03
2023-01-13T13:51:06.733Z,100426.31
2023-01-13T13:53:36.570Z,100429.84
2023-01-13T13:56:16.780Z,100443.81
2023-01-13T13:58:44.556Z,100442.94
2023-01-13T14:01:24.570Z,100448.13
2023-01-13T14:04:12.986Z,100444.66
2023-01-13T14:06:50.118Z,100447.28
2023-01-13T14:09:17.566Z,100445.44
2023-01-13T14:11:44.487Z,100446.34
2023-01-13T14:14:19.300Z,100448.91
2023-01-13T14:16:46.743Z,100448.06
2023-01-13T14:19:33.168Z,100445.47
2023-01-13T14:22:04.267Z,100454.19
2023-01-13T14:24:31.711Z,100459.50
2023-01-13T14:27:09.218Z,100455.03
2023-01-13T14:29:36.718Z,100458.66
2023-01-13T14:32:04.685Z,100460.41
2023-01-13T14:34:35.192Z,100455.16
2023-01-13T14:37:03.299Z,100460.37
2023-01-13T14:39:40.965Z,100464.81
2023-01-13T14:42:14.498Z,100470.91
2023-01-13T14:44:47.125Z,100467.41
2023-01-13T14:47:16.993Z,100468.97
2023-01-13T14:50:05.063Z,100470.00
2023-01-13T14:52:48.761Z,100463.00
2023-01-13T14:55:25.108Z,100463.91
2023-01-13T14:57:52.457Z,100472.62
2023-01-13T15:00:24.381Z,100462.91
2023-01-13T15:02:53.605Z,100470.87
2023-01-13T15:05:25.601Z,100475.25
2023-01-13T15:08:05.781Z,100471.72
2023-01-13T15:10:41.865Z,100480.38
2023-01-13T15:13:23.007Z,100478.69
2023-01-13T15:15:54.588Z,100471.59
2023-01-13T15:18:23.966Z,100467.03
2023-01-13T15:20:53.868Z,100473.03
2023-01-13T15:23:21.182Z,100468.81
2023-01-13T15:25:51.467Z,100465.94
2023-01-13T15:28:20.662Z,100468.59
2023-01-13T15:30:50.867Z,100470.63
2023-01-13T15:33:18.687Z,100469.38
2023-01-13T15:35:51.157Z,100463.53
2023-01-13T15:38:20.760Z,100464.28
2023-01-13T15:40:48.617Z,100463.59
2023-01-13T15:43:35.193Z,100459.22
2023-01-13T15:46:21.626Z,100460.97
2023-01-13T15:48:53.101Z,100463.72
2023-01-13T15:51:21.827Z,100467.09
2023-01-13T15:53:48.897Z,100475.25
2023-01-13T15:56:20.644Z,100472.56
2023-01-13T15:58:47.600Z,100475.19
2023-01-13T16:01:16.628Z,100477.69
2023-01-13T16:03:43.577Z,100476.09
2023-01-13T16:06:19.010Z,100470.87
2023-01-13T16:08:46.049Z,100478.69
2023-01-13T16:11:13.101Z,100470.81
2023-01-13T16:13:40.013Z,100469.09
2023-01-13T16:16:18.332Z,100477.81
2023-01-13T16:18:45.482Z,100486.31
2023-01-13T16:21:12.813Z,100481.34
2023-01-13T16:23:39.586Z,100482.28
2023-01-13T16:26:07.520Z,100479.66
2023-01-13T16:28:36.104Z,100480.50
2023-01-13T16:31:17.301Z,100489.25
2023-01-13T16:33:44.118Z,100493.63
2023-01-13T16:36:13.832Z,100494.50
2023-01-13T16:38:40.646Z,100502.38
2023-01-13T16:41:08.213Z,100502.31
2023-01-13T16:43:35.261Z,100502.31
2023-01-13T16:46:02.228Z,100499.38
2023-01-13T16:48:29.067Z,100499.22
2023-01-13T16:50:56.193Z,100497.09
2023-01-13T16:53:23.811Z,100510.88
2023-01-13T16:55:50.627Z,100513.66
2023-01-13T16:58:18.925Z,100515.34
2023-01-13T17:00:47.211Z,100524.09
2023-01-13T17:03:14.846Z,100517.16
2023-01-13T17:05:42.029Z,100527.53
2023-01-13T17:08:19.397Z,100529.28
2023-01-13T17:10:46.996Z,100524.06
2023-01-13T17:13:16.804Z,100519.47
2023-01-13T17:15:44.252Z,100520.34
2023-01-13T17:18:13.630Z,100527.28
2023-01-13T17:20:40.707Z,100523.22
2023-01-13T17:23:07.647Z,100528.50
2023-01-13T17:25:34.603Z,100528.50
2023-01-13T17:28:01.411Z,100521.56
2023-01-13T17:30:28.252Z,100525.06
2023-01-13T17:32:55.945Z,100526.84
2023-01-13T17:35:25.295Z,100533.88
2023-01-13T17:37:52.807Z,100526.88
2023-01-13T17:40:20.157Z,100529.50
2023-01-13T17:42:47.005Z,100532.13
2023-01-13T17:45:13.887Z,100534.69
2023-01-13T17:47:40.662Z,100534.50
2023-01-13T17:50:07.719Z,100520.66
2023-01-13T17:52:35.842Z,100540.28
2023-01-13T17:55:03.093Z,100535.22
2023-01-13T17:57:30.027Z,100541.34
2023-01-13T17:59:58.678Z,100541.47
2023-01-13T18:02:26.935Z,100546.88
2023-01-13T18:04:53.780Z,100546.84
2023-01-13T18:07:20.941Z,100554.66
2023-01-13T18:09:48.200Z,100551.19
2023-01-13T18:12:15.238Z,100549.41
2023-01-13T18:14:42.159Z,100555.56
2023-01-13T18:17:09.289Z,100559.84
2023-01-13T18:19:54.719Z,100559.81
2023-01-13T18:22:40.431Z,100568.72
2023-01-13T18:25:30.384Z,100566.09
2023-01-13T18:27:58.788Z,100575.53
2023-01-13T18:30:25.889Z,100573.06
2023-01-13T18:32:52.961Z,100581.53
2023-01-13T18:35:19.747Z,100579.47
2023-01-13T18:37:46.777Z,100588.09
2023-01-13T18:40:15.985Z,100586.25
2023-01-13T18:42:51.896Z,100582.41
2023-01-13T18:45:28.064Z,100584.41
2023-01-13T18:47:56.308Z,100580.00
2023-01-13T18:50:25.458Z,100590.44
2023-01-13T18:52:52.763Z,100598.44
2023-01-13T18:55:20.004Z,100609.00
2023-01-13T18:57:49.598Z,100605.47
2023-01-13T19:00:17.792Z,100608.00
2023-01-13T19:02:47.703Z,100612.16
2023-01-13T19:05:14.892Z,100615.66
2023-01-13T19:07:51.026Z,100627.72
2023-01-13T19:10:18.550Z,100629.34
2023-01-13T19:12:45.337Z,100631.34
2023-01-13T19:15:15.103Z,100638.44
2023-01-13T19:17:41.957Z,100632.38
2023-01-13T19:20:10.543Z,100634.28
2023-01-13T19:22:37.437Z,100636.75
2023-01-13T19:25:05.253Z,100640.78
2023-01-13T19:27:32.410Z,100644.41
2023-01-13T19:30:02.042Z,100650.53
2023-01-13T19:32:48.647Z,100654.34
2023-01-13T19:35:18.275Z,100669.53
2023-01-13T19:37:46.162Z,100665.78
2023-01-13T19:40:32.218Z,100671.44
2023-01-13T19:43:18.781Z,100680.16
2023-01-13T19:45:46.566Z,100677.22
2023-01-13T19:48:16.789Z,100673.34
2023-01-13T19:50:43.805Z,100656.47
2023-01-13T19:53:15.812Z,100652.88
2023-01-13T19:55:47.950Z,100662.09
2023-01-13T19:58:14.900Z,100663.16
2023-01-13T20:00:47.798Z,100664.97
2023-01-13T20:03:20.839Z,100659.91
2023-01-13T20:05:48.149Z,100644.97
2023-01-13T20:08:15.012Z,100635.22
2023-01-13T20:10:43.219Z,100632.69
2023-01-13T20:13:10.007Z,100628.50
2023-01-13T20:15:38.060Z,100644.37
2023-01-13T20:18:04.899Z,100652.25
2023-01-13T20:20:31.687Z,100659.44
2023-01-13T20:23:00.440Z,100666.94
2023-01-13T20:25:29.198Z,100681.31
2023-01-13T20:27:56.750Z,100673.47
2023-01-13T20:30:24.197Z,100675.97
2023-01-13T20:32:51.190Z,100674.09
2023-01-13T20:35:18.581Z,100666.66
2023-01-13T20:37:45.407Z,100665.38
2023-01-13T20:40:14.309Z,100676.59
2023-01-13T20:42:47.126Z,100667.31
2023-01-13T20:45:18.149Z,100663.81
2023-01-13T20:47:45.961Z,100657.81
2023-01-13T20:50:15.959Z,100656.78
2023-01-13T20:52:44.497Z,100666.47
2023-01-13T20:55:12.609Z,100667.37
2023-01-13T20:57:42.015Z,100666.47
2023-01-13T21:00:13.520Z,100676.84
2023-01-13T21:02:41.759Z,100687.53
2023-01-13T21:05:09.996Z,100692.88
2023-01-13T21:07:36.973Z,100712.19
2023-01-13T21:10:04.685Z,100718.28
2023-01-13T21:12:50.523Z,100720.97
2023-01-13T21:15:18.019Z,100747.09
2023-01-13T21:18:11.026Z,100741.06
2023-01-13T21:20:38.848Z,100752.28
2023-01-13T21:23:06.123Z,100757.59
2023-01-13T21:25:35.424Z,100762.78
2023-01-13T21:28:07.863Z,100780.31
2023-01-13T21:30:34.942Z,100799.63
2023-01-13T21:33:04.165Z,100811.06
2023-01-13T21:35:31.322Z,100806.13
2023-01-13T21:37:58.083Z,100808.75
2023-01-13T21:40:25.108Z,100816.84
2023-01-13T21:43:10.712Z,100817.38
2023-01-13T21:46:00.677Z,100824.41
2023-01-13T21:48:27.517Z,100807.16
2023-01-13T21:50:54.426Z,100785.25
2023-01-13T21:53:21.902Z,100766.19
2023-01-13T21:55:53.056Z,100750.59
2023-01-13T21:58:40.124Z,100751.50
2023-01-13T22:01:07.131Z,100764.34
2023-01-13T22:04:11.019Z,100778.44
2023-01-13T22:06:38.162Z,100760.88
2023-01-13T22:09:05.556Z,100768.81
2023-01-13T22:11:32.705Z,100768.72
2023-01-13T22:14:11.302Z,100785.19
2023-01-13T22:16:39.772Z,100789.19
2023-01-13T22:19:07.383Z,100771.22
2023-01-13T22:21:35.014Z,100795.72
2023-01-13T22:24:02.095Z,100809.50
2023-01-13T22:26:29.744Z,100784.34
2023-01-13T22:28:56.973Z,100785.66
2023-01-13T22:31:26.012Z,100787.81
2023-01-13T22:33:53.614Z,100795.75
2023-01-13T22:36:21.293Z,100793.16
2023-01-13T22:38:49.562Z,100806.19
2023-01-13T22:41:16.377Z,100808.00
2023-01-13T22:43:43.400Z,100796.59
2023-01-13T22:46:11.732Z,100786.19
2023-01-13T22:48:39.628Z,100793.19
2023-01-13T22:51:11.457Z,100805.69
2023-01-13T22:53:38.824Z,100795.59
2023-01-13T22:56:07.670Z,100797.50
2023-01-13T22:58:35.014Z,100790.59
2023-01-13T23:01:12.323Z,100796.44
2023-01-13T23:03:39.832Z,100787.91
2023-01-13T23:06:06.802Z,100795.56
2023-01-13T23:08:34.173Z,100793.03
2023-01-13T23:11:02.544Z,100813.63
2023-01-13T23:13:29.656Z,100810.13
2023-01-13T23:15:57.033Z,100803.03
2023-01-13T23:18:25.342Z,100795.47
2023-01-13T23:20:52.106Z,100791.97
2023-01-13T23:23:18.914Z,100797.47
2023-01-13T23:25:50.004Z,100795.78
2023-01-13T23:28:17.292Z,100777.84
2023-01-13T23:30:44.249Z,100779.59
2023-01-13T23:33:11.440Z,100789.37
2023-01-13T23:35:38.325Z,100791.00
2023-01-13T23:38:05.154Z,100787.53
2023-01-13T23:40:33.824Z,100796.31
2023-01-13T23:43:01.601Z,100796.37
2023-01-13T23:45:28.407Z,100791.12
2023-01-13T23:47:57.014Z,100780.75
2023-01-13T23:50:25.533Z,100775.56
2023-01-13T23:52:55.523Z,100765.06
2023-01-13T23:55:22.853Z,100769.13
2023-01-13T23:57:50.185Z,100780.91
